createdAt,value
2019-02-21T00:00:24.320Z,3.90
2019-02-21T00:01:19.875Z,3.80
2019-02-21T00:02:19.879Z,4.10
2019-02-21T00:03:19.857Z,3.80
2019-02-21T00:04:19.851Z,4.10
2019-02-21T00:05:19.835Z,4.10
2019-02-21T00:06:19.820Z,4.60
2019-02-21T00:07:19.815Z,4.40
2019-02-21T00:08:19.863Z,4.60
2019-02-21T00:09:19.816Z,4.80
2019-02-21T00:10:19.807Z,5.00
2019-02-21T00:11:19.799Z,4.90
2019-02-21T00:12:19.784Z,6.00
2019-02-21T00:13:19.766Z,5.50
2019-02-21T00:14:19.773Z,6.00
2019-02-21T00:15:19.785Z,5.90
2019-02-21T00:16:19.759Z,6.10
2019-02-21T00:17:19.749Z,5.40
2019-02-21T00:18:19.777Z,5.50
2019-02-21T00:19:19.731Z,5.20
2019-02-21T00:20:19.724Z,5.70
2019-02-21T00:21:19.709Z,5.40
2019-02-21T00:22:19.713Z,6.00
2019-02-21T00:23:19.743Z,5.90
2019-02-21T00:24:19.702Z,6.30
2019-02-21T00:25:19.668Z,5.90
2019-02-21T00:26:19.666Z,5.80
2019-02-21T00:27:19.674Z,6.00
2019-02-21T00:28:19.663Z,6.50
2019-02-21T00:29:19.664Z,6.90
2019-02-21T00:30:19.647Z,6.50
2019-02-21T00:31:19.638Z,6.70
2019-02-21T00:32:19.630Z,5.50
2019-02-21T00:33:19.599Z,4.70
2019-02-21T00:34:19.621Z,4.50
2019-02-21T00:35:19.599Z,3.70
2019-02-21T00:36:19.598Z,3.70
2019-02-21T00:37:19.586Z,3.90
2019-02-21T00:38:19.578Z,4.10
2019-02-21T00:39:19.585Z,4.20
2019-02-21T00:40:19.616Z,4.20
2019-02-21T00:41:19.555Z,4.50
2019-02-21T00:42:19.542Z,4.40
2019-02-21T00:43:19.551Z,4.90
2019-02-21T00:44:19.524Z,5.20
2019-02-21T00:45:19.514Z,5.00
2019-02-21T00:46:19.521Z,5.50
2019-02-21T00:47:19.508Z,5.70
2019-02-21T00:48:19.519Z,6.10
2019-02-21T00:49:19.475Z,6.10
2019-02-21T00:50:19.489Z,6.70
2019-02-21T00:51:19.523Z,6.70
2019-02-21T00:52:19.466Z,4.90
2019-02-21T00:53:19.474Z,3.80
2019-02-21T00:54:19.496Z,3.30
2019-02-21T00:55:19.461Z,3.30
2019-02-21T00:56:19.439Z,3.20
2019-02-21T00:57:19.446Z,3.30
2019-02-21T00:58:19.424Z,3.00
2019-02-21T00:59:19.422Z,2.60
2019-02-21T01:00:19.417Z,2.70
2019-02-21T01:01:20.834Z,2.70
2019-02-21T01:02:19.374Z,2.90
2019-02-21T01:03:19.383Z,2.60
2019-02-21T01:04:19.382Z,2.90
2019-02-21T01:05:19.368Z,3.40
2019-02-21T01:06:19.400Z,3.00
2019-02-21T01:07:19.343Z,3.60
2019-02-21T01:08:19.357Z,3.40
2019-02-21T01:09:19.318Z,3.50
2019-02-21T01:10:19.304Z,3.50
2019-02-21T01:11:19.307Z,3.70
2019-02-21T01:12:19.319Z,4.20
2019-02-21T01:13:19.280Z,4.20
2019-02-21T01:14:19.279Z,6.30
2019-02-21T01:15:19.268Z,6.10
2019-02-21T01:16:19.262Z,4.50
2019-02-21T01:17:19.265Z,3.60
2019-02-21T01:18:19.238Z,3.50
2019-02-21T01:19:19.245Z,3.70
2019-02-21T01:20:19.243Z,3.50
2019-02-21T01:21:19.223Z,3.70
2019-02-21T01:22:19.211Z,3.40
2019-02-21T01:23:19.208Z,3.70
2019-02-21T01:24:19.205Z,4.30
2019-02-21T01:25:19.213Z,3.30
2019-02-21T01:26:19.195Z,3.50
2019-02-21T01:27:19.223Z,4.10
2019-02-21T01:28:19.186Z,4.40
2019-02-21T01:29:19.155Z,4.70
2019-02-21T01:30:19.149Z,4.80
2019-02-21T01:31:19.156Z,5.70
2019-02-21T01:32:19.126Z,4.40
2019-02-21T01:33:19.137Z,4.60
2019-02-21T01:34:19.125Z,4.90
2019-02-21T01:35:19.155Z,4.60
2019-02-21T01:36:19.121Z,5.10
2019-02-21T01:37:19.134Z,4.70
2019-02-21T01:38:19.071Z,5.60
2019-02-21T01:39:19.125Z,5.10
2019-02-21T01:40:19.087Z,6.10
2019-02-21T01:41:19.081Z,5.40
2019-02-21T01:42:19.106Z,4.50
2019-02-21T01:43:19.095Z,5.50
2019-02-21T01:44:19.045Z,5.20
2019-02-21T01:45:19.046Z,4.70
2019-02-21T01:46:19.033Z,4.30
2019-02-21T01:47:19.020Z,4.40
2019-02-21T01:48:18.992Z,5.30
2019-02-21T01:49:18.996Z,5.50
2019-02-21T01:50:19.005Z,5.70
2019-02-21T01:51:18.982Z,6.20
2019-02-21T01:52:18.995Z,6.30
2019-02-21T01:53:18.985Z,6.30
2019-02-21T01:54:18.982Z,6.70
2019-02-21T01:55:18.974Z,6.20
2019-02-21T01:56:18.947Z,6.60
2019-02-21T01:57:18.955Z,5.90
2019-02-21T01:58:18.939Z,5.80
2019-02-21T01:59:18.926Z,6.20
2019-02-21T02:00:18.961Z,5.70
2019-02-21T02:01:18.902Z,5.60
2019-02-21T02:02:18.894Z,6.00
2019-02-21T02:03:18.903Z,6.00
2019-02-21T02:04:18.904Z,5.50
2019-02-21T02:05:18.870Z,6.20
2019-02-21T02:06:18.872Z,6.60
2019-02-21T02:07:18.871Z,6.90
2019-02-21T02:08:18.832Z,6.70
2019-02-21T02:09:18.832Z,6.60
2019-02-21T02:10:18.856Z,6.60
2019-02-21T02:11:18.827Z,6.20
2019-02-21T02:12:18.832Z,6.30
2019-02-21T02:13:24.719Z,6.50
2019-02-21T02:14:18.803Z,7.20
2019-02-21T02:15:18.822Z,7.20
2019-02-21T02:16:18.793Z,6.50
2019-02-21T02:17:18.789Z,6.40
2019-02-21T02:18:18.785Z,6.40
2019-02-21T02:19:18.776Z,6.50
2019-02-21T02:20:18.758Z,6.70
2019-02-21T02:21:18.751Z,7.90
2019-02-21T02:22:18.750Z,8.00
2019-02-21T02:23:18.739Z,7.60
2019-02-21T02:24:18.733Z,6.80
2019-02-21T02:25:18.724Z,6.70
2019-02-21T02:26:18.721Z,7.30
2019-02-21T02:27:18.699Z,7.20
2019-02-21T02:28:18.685Z,7.70
2019-02-21T02:29:18.672Z,7.70
2019-02-21T02:30:18.692Z,7.80
2019-02-21T02:31:23.324Z,7.70
2019-02-21T02:32:18.657Z,7.20
2019-02-21T02:33:18.646Z,7.10
2019-02-21T02:34:18.645Z,7.30
2019-02-21T02:35:18.635Z,7.10
2019-02-21T02:36:18.636Z,7.00
2019-02-21T02:37:18.620Z,8.00
2019-02-21T02:38:18.621Z,7.70
2019-02-21T02:39:18.609Z,8.70
2019-02-21T02:40:18.619Z,8.30
2019-02-21T02:41:18.594Z,8.70
2019-02-21T02:42:18.572Z,8.70
2019-02-21T02:43:18.589Z,8.50
2019-02-21T02:44:18.546Z,8.00
2019-02-21T02:45:18.562Z,8.60
2019-02-21T02:46:18.547Z,9.30
2019-02-21T02:47:18.553Z,9.10
2019-02-21T02:48:18.515Z,8.30
2019-02-21T02:49:18.530Z,9.20
2019-02-21T02:50:18.524Z,9.30
2019-02-21T02:51:18.508Z,9.60
2019-02-21T02:52:18.517Z,9.30
2019-02-21T02:53:18.493Z,8.60
2019-02-21T02:54:18.507Z,9.80
2019-02-21T02:55:18.476Z,9.00
2019-02-21T02:56:18.458Z,8.60
2019-02-21T02:57:18.472Z,9.40
2019-02-21T02:58:18.471Z,9.80
2019-02-21T02:59:18.446Z,8.80
2019-02-21T03:00:18.455Z,9.30
2019-02-21T03:01:18.441Z,9.70
2019-02-21T03:02:18.437Z,9.60
2019-02-21T03:03:18.429Z,10.30
2019-02-21T03:04:18.412Z,9.60
2019-02-21T03:05:18.411Z,9.10
2019-02-21T03:06:18.390Z,9.30
2019-02-21T03:07:18.409Z,9.20
2019-02-21T03:08:18.372Z,9.20
2019-02-21T03:09:18.383Z,10.10
2019-02-21T03:10:18.367Z,10.00
2019-02-21T03:11:18.355Z,10.10
2019-02-21T03:12:18.341Z,10.20
2019-02-21T03:13:18.396Z,9.70
2019-02-21T03:14:18.339Z,9.90
2019-02-21T03:15:18.319Z,10.30
2019-02-21T03:16:18.301Z,8.90
2019-02-21T03:17:18.304Z,9.00
2019-02-21T03:18:18.345Z,11.20
2019-02-21T03:19:18.290Z,10.70
2019-02-21T03:20:18.299Z,9.60
2019-02-21T03:21:18.288Z,10.60
2019-02-21T03:22:18.279Z,10.20
2019-02-21T03:23:18.268Z,10.50
2019-02-21T03:24:18.256Z,10.10
2019-02-21T03:25:18.269Z,10.00
2019-02-21T03:26:18.229Z,10.80
2019-02-21T03:27:18.235Z,10.40
2019-02-21T03:28:18.206Z,10.80
2019-02-21T03:29:18.216Z,9.80
2019-02-21T03:30:18.241Z,10.20
2019-02-21T03:31:18.186Z,9.90
2019-02-21T03:32:18.232Z,10.30
2019-02-21T03:33:18.174Z,10.20
2019-02-21T03:34:18.208Z,9.70
2019-02-21T03:35:18.180Z,9.30
2019-02-21T03:36:18.172Z,10.30
2019-02-21T03:37:18.164Z,9.80
2019-02-21T03:38:18.232Z,9.50
2019-02-21T03:39:18.144Z,9.90
2019-02-21T03:40:18.116Z,9.60
2019-02-21T03:41:18.167Z,9.10
2019-02-21T03:42:18.150Z,10.40
2019-02-21T03:43:18.091Z,9.80
2019-02-21T03:44:18.129Z,9.30
2019-02-21T03:45:18.079Z,9.30
2019-02-21T03:46:18.065Z,9.40
2019-02-21T03:47:18.092Z,10.10
2019-02-21T03:48:18.056Z,11.10
2019-02-21T03:49:18.045Z,11.00
2019-02-21T03:50:18.085Z,10.70
2019-02-21T03:51:18.034Z,11.00
2019-02-21T03:52:18.025Z,11.20
2019-02-21T03:53:18.025Z,10.50
2019-02-21T03:54:18.008Z,11.40
2019-02-21T03:55:18.039Z,10.30
2019-02-21T03:56:18.017Z,10.40
2019-02-21T03:57:18.002Z,9.90
2019-02-21T03:58:17.994Z,10.70
2019-02-21T03:59:17.960Z,11.80
2019-02-21T04:00:17.956Z,10.70
2019-02-21T04:01:17.962Z,10.50
2019-02-21T04:02:17.969Z,10.90
2019-02-21T04:03:17.951Z,11.10
2019-02-21T04:04:17.937Z,11.10
2019-02-21T04:05:17.928Z,11.90
2019-02-21T04:06:17.925Z,11.20
2019-02-21T04:07:17.926Z,11.70
2019-02-21T04:08:17.914Z,11.90
2019-02-21T04:09:17.894Z,12.00
2019-02-21T04:10:17.922Z,11.80
2019-02-21T04:11:17.922Z,11.80
2019-02-21T04:12:17.889Z,11.10
2019-02-21T04:13:17.875Z,10.90
2019-02-21T04:14:20.073Z,10.60
2019-02-21T04:15:17.899Z,10.90
2019-02-21T04:16:17.831Z,11.80
2019-02-21T04:17:17.837Z,11.40
2019-02-21T04:18:17.819Z,11.50
2019-02-21T04:19:17.823Z,12.00
2019-02-21T04:20:17.823Z,12.50
2019-02-21T04:21:17.808Z,13.40
2019-02-21T04:22:17.800Z,11.50
2019-02-21T04:23:17.788Z,12.00
2019-02-21T04:24:17.757Z,11.70
2019-02-21T04:25:17.781Z,12.40
2019-02-21T04:26:17.773Z,12.50
2019-02-21T04:27:17.762Z,12.10
2019-02-21T04:28:17.758Z,12.70
2019-02-21T04:29:18.007Z,13.20
2019-02-21T04:30:17.745Z,11.90
2019-02-21T04:31:17.716Z,12.60
2019-02-21T04:32:17.764Z,13.10
2019-02-21T04:33:17.703Z,13.50
2019-02-21T04:34:17.824Z,13.20
2019-02-21T04:35:17.700Z,13.50
2019-02-21T04:36:17.690Z,14.70
2019-02-21T04:37:17.787Z,14.90
2019-02-21T04:38:17.706Z,14.00
2019-02-21T04:39:17.674Z,14.90
2019-02-21T04:40:17.646Z,14.10
2019-02-21T04:41:17.636Z,14.20
2019-02-21T04:42:17.635Z,15.00
2019-02-21T04:43:17.630Z,15.90
2019-02-21T04:44:17.667Z,15.90
2019-02-21T04:45:17.624Z,17.00
2019-02-21T04:46:17.652Z,17.20
2019-02-21T04:47:17.597Z,17.20
2019-02-21T04:48:17.594Z,18.10
2019-02-21T04:49:17.566Z,16.90
2019-02-21T04:50:17.575Z,18.70
2019-02-21T04:51:17.558Z,18.20
2019-02-21T04:52:17.565Z,17.60
2019-02-21T04:53:17.706Z,18.00
2019-02-21T04:54:17.527Z,17.60
2019-02-21T04:55:17.551Z,16.90
2019-02-21T04:56:17.565Z,18.40
2019-02-21T04:57:17.524Z,16.90
2019-02-21T04:58:17.511Z,17.50
2019-02-21T04:59:17.503Z,17.10
2019-02-21T05:00:17.507Z,17.50
2019-02-21T05:01:17.497Z,16.30
2019-02-21T05:02:28.146Z,16.30
2019-02-21T05:03:17.481Z,15.40
2019-02-21T05:04:17.469Z,14.50
2019-02-21T05:05:17.452Z,15.60
2019-02-21T05:06:17.490Z,16.70
2019-02-21T05:07:17.447Z,17.80
2019-02-21T05:08:17.442Z,16.20
2019-02-21T05:09:17.428Z,15.80
2019-02-21T05:10:17.432Z,13.40
2019-02-21T05:11:17.425Z,13.20
2019-02-21T05:12:17.395Z,13.20
2019-02-21T05:13:17.378Z,13.60
2019-02-21T05:14:17.393Z,13.90
2019-02-21T05:15:17.357Z,14.20
2019-02-21T05:16:17.371Z,14.40
2019-02-21T05:17:17.342Z,14.60
2019-02-21T05:18:17.340Z,13.80
2019-02-21T05:19:17.338Z,13.90
2019-02-21T05:20:17.371Z,14.50
2019-02-21T05:21:17.327Z,14.60
2019-02-21T05:22:17.318Z,14.10
2019-02-21T05:23:17.311Z,14.00
2019-02-21T05:24:17.345Z,12.00
2019-02-21T05:25:17.291Z,13.30
2019-02-21T05:26:17.280Z,12.20
2019-02-21T05:27:17.324Z,9.90
2019-02-21T05:28:17.318Z,10.10
2019-02-21T05:29:17.267Z,8.70
2019-02-21T05:30:17.261Z,9.20
2019-02-21T05:31:17.232Z,10.20
2019-02-21T05:32:17.233Z,10.10
2019-02-21T05:33:17.211Z,9.60
2019-02-21T05:34:17.210Z,10.00
2019-02-21T05:35:17.217Z,10.00
2019-02-21T05:36:17.187Z,9.80
2019-02-21T05:37:17.199Z,10.00
2019-02-21T05:38:17.176Z,10.20
2019-02-21T05:39:17.194Z,8.80
2019-02-21T05:40:17.189Z,9.00
2019-02-21T05:41:17.179Z,9.20
2019-02-21T05:42:17.154Z,7.30
2019-02-21T05:43:17.151Z,7.50
2019-02-21T05:44:17.135Z,7.50
2019-02-21T05:45:17.128Z,7.60
2019-02-21T05:46:17.141Z,7.80
2019-02-21T05:47:17.127Z,10.00
2019-02-21T05:48:17.126Z,9.80
2019-02-21T05:49:17.104Z,9.60
2019-02-21T05:50:17.104Z,8.80
2019-02-21T05:51:17.097Z,10.10
2019-02-21T05:52:17.085Z,9.20
2019-02-21T05:53:17.081Z,9.00
2019-02-21T05:54:17.082Z,8.70
2019-02-21T05:55:17.079Z,9.30
2019-02-21T05:56:17.040Z,8.60
2019-02-21T05:57:17.045Z,8.30
2019-02-21T05:58:17.023Z,9.30
2019-02-21T05:59:17.015Z,9.30
2019-02-21T06:00:17.000Z,8.60
2019-02-21T06:01:17.269Z,7.00
2019-02-21T06:02:16.989Z,6.90
2019-02-21T06:03:17.043Z,7.80
2019-02-21T06:04:19.265Z,6.50
2019-02-21T06:05:19.272Z,7.10
2019-02-21T06:06:17.340Z,7.70
2019-02-21T06:07:16.997Z,6.80
2019-02-21T06:08:16.962Z,7.50
2019-02-21T06:09:16.940Z,7.50
2019-02-21T06:10:16.938Z,7.20
2019-02-21T06:11:18.100Z,7.00
2019-02-21T06:12:16.924Z,7.50
2019-02-21T06:13:16.921Z,7.70
2019-02-21T06:14:16.911Z,6.20
2019-02-21T06:15:18.272Z,6.70
2019-02-21T06:16:16.879Z,6.50
2019-02-21T06:17:17.014Z,6.40
2019-02-21T06:18:17.810Z,5.60
2019-02-21T06:19:16.869Z,5.80
2019-02-21T06:20:17.993Z,5.40
2019-02-21T06:21:16.832Z,5.00
2019-02-21T06:22:16.846Z,4.90
2019-02-21T06:23:16.837Z,4.80
2019-02-21T06:24:16.797Z,4.40
2019-02-21T06:25:16.811Z,5.10
2019-02-21T06:26:16.807Z,5.30
2019-02-21T06:27:16.829Z,4.50
2019-02-21T06:28:16.796Z,4.70
2019-02-21T06:29:16.781Z,4.90
2019-02-21T06:30:16.772Z,5.50
2019-02-21T06:31:16.775Z,5.10
2019-02-21T06:32:16.796Z,5.70
2019-02-21T06:33:16.758Z,5.50
2019-02-21T06:34:16.747Z,5.50
2019-02-21T06:35:16.720Z,6.20
2019-02-21T06:36:16.732Z,5.80
2019-02-21T06:37:16.720Z,5.90
2019-02-21T06:38:16.695Z,5.70
2019-02-21T06:39:16.705Z,5.90
2019-02-21T06:40:16.726Z,5.60
2019-02-21T06:41:16.692Z,5.80
2019-02-21T06:42:16.682Z,6.30
2019-02-21T06:43:16.663Z,7.00
2019-02-21T06:44:16.674Z,6.80
2019-02-21T06:45:18.148Z,7.00
2019-02-21T06:46:16.654Z,6.80
2019-02-21T06:47:16.630Z,6.80
2019-02-21T06:48:16.630Z,6.90
2019-02-21T06:49:16.660Z,7.10
2019-02-21T06:50:26.126Z,6.00
2019-02-21T06:51:16.614Z,6.10
2019-02-21T06:52:16.579Z,6.00
2019-02-21T06:53:16.596Z,5.60
2019-02-21T06:54:16.567Z,5.40
2019-02-21T06:55:16.559Z,6.40
2019-02-21T06:56:16.548Z,7.00
2019-02-21T06:57:16.541Z,6.60
2019-02-21T06:58:16.547Z,7.10
2019-02-21T06:59:16.532Z,8.30
2019-02-21T07:00:16.534Z,7.70
2019-02-21T07:01:26.674Z,8.50
2019-02-21T07:02:16.552Z,8.00
2019-02-21T07:03:16.516Z,7.50
2019-02-21T07:04:16.517Z,7.70
2019-02-21T07:05:16.489Z,9.20
2019-02-21T07:06:19.017Z,9.70
2019-02-21T07:07:16.462Z,9.40
2019-02-21T07:08:16.448Z,9.50
2019-02-21T07:09:16.497Z,9.90
2019-02-21T07:10:16.606Z,9.80
2019-02-21T07:11:16.449Z,9.20
2019-02-21T07:12:16.446Z,9.40
2019-02-21T07:13:26.174Z,8.90
2019-02-21T07:14:16.428Z,8.70
2019-02-21T07:15:16.420Z,8.40
2019-02-21T07:16:16.411Z,9.20
2019-02-21T07:17:16.389Z,8.20
2019-02-21T07:18:16.382Z,8.80
2019-02-21T07:19:16.359Z,8.20
2019-02-21T07:20:16.376Z,8.20
2019-02-21T07:21:16.354Z,8.60
2019-02-21T07:22:18.149Z,9.10
2019-02-21T07:23:16.334Z,9.90
2019-02-21T07:24:18.051Z,9.70
2019-02-21T07:25:16.321Z,10.00
2019-02-21T07:26:16.323Z,9.80
2019-02-21T07:27:16.321Z,9.80
2019-02-21T07:28:16.378Z,9.40
2019-02-21T07:29:16.292Z,9.90
2019-02-21T07:30:20.187Z,9.50
2019-02-21T07:31:27.711Z,9.70
2019-02-21T07:32:16.255Z,9.70
2019-02-21T07:33:27.297Z,8.90
2019-02-21T07:34:16.253Z,9.90
2019-02-21T07:35:16.229Z,9.90
2019-02-21T07:36:16.393Z,10.40
2019-02-21T07:37:18.980Z,9.90
2019-02-21T07:38:17.194Z,10.20
2019-02-21T07:39:19.792Z,10.70
2019-02-21T07:40:20.129Z,11.20
2019-02-21T07:41:18.552Z,10.60
2019-02-21T07:42:16.198Z,11.10
2019-02-21T07:43:16.201Z,11.90
2019-02-21T07:44:16.215Z,11.70
2019-02-21T07:45:16.173Z,12.90
2019-02-21T07:46:16.138Z,11.50
2019-02-21T07:47:16.151Z,11.80
2019-02-21T07:48:16.143Z,12.40
2019-02-21T07:49:16.133Z,11.60
2019-02-21T07:50:16.120Z,12.50
2019-02-21T07:51:16.122Z,13.10
2019-02-21T07:52:16.110Z,12.20
2019-02-21T07:53:16.115Z,13.20
2019-02-21T07:54:16.109Z,12.60
2019-02-21T07:55:16.080Z,12.00
2019-02-21T07:56:16.119Z,12.70
2019-02-21T07:57:16.068Z,12.10
2019-02-21T07:58:16.077Z,12.60
2019-02-21T07:59:16.043Z,12.20
2019-02-21T08:00:16.032Z,12.30
2019-02-21T08:01:17.524Z,13.50
2019-02-21T08:02:16.040Z,12.50
2019-02-21T08:03:16.005Z,13.40
2019-02-21T08:04:16.022Z,13.30
2019-02-21T08:05:15.988Z,14.80
2019-02-21T08:06:16.008Z,14.70
2019-02-21T08:07:15.977Z,15.20
2019-02-21T08:08:15.976Z,15.20
2019-02-21T08:09:15.971Z,14.70
2019-02-21T08:10:15.968Z,14.90
2019-02-21T08:11:15.970Z,14.60
2019-02-21T08:12:15.992Z,15.20
2019-02-21T08:13:15.937Z,15.00
2019-02-21T08:14:16.275Z,16.30
2019-02-21T08:15:15.924Z,16.20
2019-02-21T08:16:15.928Z,16.00
2019-02-21T08:17:16.357Z,15.70
2019-02-21T08:18:15.945Z,16.60
2019-02-21T08:19:15.895Z,15.40
2019-02-21T08:20:15.931Z,15.70
2019-02-21T08:21:15.887Z,16.00
2019-02-21T08:22:15.961Z,16.50
2019-02-21T08:23:15.859Z,15.40
2019-02-21T08:24:15.855Z,17.00
2019-02-21T08:25:15.843Z,17.60
2019-02-21T08:26:15.851Z,17.30
2019-02-21T08:27:15.837Z,16.70
2019-02-21T08:28:15.839Z,18.10
2019-02-21T08:29:15.826Z,17.70
2019-02-21T08:30:15.815Z,17.00
2019-02-21T08:31:15.795Z,17.90
2019-02-21T08:32:15.805Z,18.80
2019-02-21T08:33:15.791Z,17.90
2019-02-21T08:34:15.795Z,18.00
2019-02-21T08:35:15.819Z,17.90
2019-02-21T08:36:15.774Z,17.80
2019-02-21T08:37:15.767Z,18.20
2019-02-21T08:38:15.743Z,17.70
2019-02-21T08:39:15.735Z,17.60
2019-02-21T08:40:15.748Z,17.80
2019-02-21T08:41:15.739Z,16.60
2019-02-21T08:42:15.727Z,17.10
2019-02-21T08:43:15.719Z,17.20
2019-02-21T08:44:15.699Z,17.00
2019-02-21T08:45:17.753Z,18.10
2019-02-21T08:46:18.146Z,17.20
2019-02-21T08:47:15.725Z,17.80
2019-02-21T08:48:15.688Z,18.60
2019-02-21T08:49:15.694Z,19.60
2019-02-21T08:50:15.710Z,19.80
2019-02-21T08:51:18.167Z,18.70
2019-02-21T08:52:15.653Z,19.50
2019-02-21T08:53:15.701Z,18.50
2019-02-21T08:54:15.620Z,18.50
2019-02-21T08:55:15.613Z,18.80
2019-02-21T08:56:15.675Z,18.70
2019-02-21T08:57:18.335Z,19.50
2019-02-21T08:58:15.599Z,18.80
2019-02-21T08:59:15.610Z,18.00
2019-02-21T09:00:15.604Z,18.60
2019-02-21T09:01:15.579Z,19.30
2019-02-21T09:02:15.615Z,17.80
2019-02-21T09:03:18.004Z,18.40
2019-02-21T09:04:26.711Z,18.30
2019-02-21T09:05:15.548Z,17.80
2019-02-21T09:06:15.535Z,18.70
2019-02-21T09:07:15.540Z,18.00
2019-02-21T09:08:16.797Z,18.00
2019-02-21T09:09:15.516Z,18.10
2019-02-21T09:10:15.522Z,17.90
2019-02-21T09:11:15.519Z,17.80
2019-02-21T09:12:15.505Z,16.60
2019-02-21T09:13:15.480Z,18.30
2019-02-21T09:14:15.464Z,18.20
2019-02-21T09:15:15.482Z,18.40
2019-02-21T09:16:17.678Z,18.60
2019-02-21T09:17:15.472Z,18.70
2019-02-21T09:18:15.456Z,20.30
2019-02-21T09:19:15.432Z,21.10
2019-02-21T09:20:15.439Z,20.60
2019-02-21T09:21:15.419Z,20.40
2019-02-21T09:22:15.406Z,20.70
2019-02-21T09:23:15.959Z,21.60
2019-02-21T09:24:26.861Z,19.90
2019-02-21T09:25:15.406Z,20.10
2019-02-21T09:26:15.406Z,18.50
2019-02-21T09:27:15.423Z,18.20
2019-02-21T09:28:15.882Z,17.40
2019-02-21T09:29:15.359Z,18.10
2019-02-21T09:30:15.356Z,19.00
2019-02-21T09:31:15.359Z,18.60
2019-02-21T09:32:15.344Z,18.10
2019-02-21T09:33:18.032Z,18.00
2019-02-21T09:34:21.215Z,17.10
2019-02-21T09:35:15.325Z,17.80
2019-02-21T09:36:15.311Z,18.50
2019-02-21T09:37:15.325Z,17.60
2019-02-21T09:38:15.314Z,18.10
2019-02-21T09:39:16.017Z,18.50
2019-02-21T09:40:15.265Z,18.50
2019-02-21T09:41:15.277Z,17.90
2019-02-21T09:42:15.277Z,18.30
2019-02-21T09:43:15.278Z,18.50
2019-02-21T09:44:15.257Z,18.40
2019-02-21T09:45:15.249Z,19.60
2019-02-21T09:46:15.258Z,19.30
2019-02-21T09:47:15.276Z,21.70
2019-02-21T09:48:15.240Z,21.90
2019-02-21T09:49:15.226Z,21.20
2019-02-21T09:50:15.206Z,21.00
2019-02-21T09:51:17.893Z,20.50
2019-02-21T09:52:15.196Z,21.70
2019-02-21T09:53:15.197Z,20.70
2019-02-21T09:54:15.191Z,19.50
2019-02-21T09:55:15.173Z,18.70
2019-02-21T09:56:15.160Z,18.20
2019-02-21T09:57:15.158Z,18.50
2019-02-21T09:58:15.153Z,18.10
2019-02-21T09:59:15.154Z,19.20
2019-02-21T10:00:15.137Z,20.20
2019-02-21T10:01:15.140Z,20.10
2019-02-21T10:02:15.125Z,20.10
2019-02-21T10:03:15.121Z,19.40
2019-02-21T10:04:15.132Z,19.80
2019-02-21T10:05:15.092Z,20.70
2019-02-21T10:06:15.139Z,19.70
2019-02-21T10:07:15.092Z,19.50
2019-02-21T10:08:15.111Z,20.00
2019-02-21T10:09:15.086Z,20.40
2019-02-21T10:10:15.070Z,20.30
2019-02-21T10:11:15.069Z,20.80
2019-02-21T10:12:15.071Z,20.60
2019-02-21T10:13:15.036Z,21.30
2019-02-21T10:14:15.101Z,21.00
2019-02-21T10:15:15.048Z,20.10
2019-02-21T10:16:15.006Z,19.40
2019-02-21T10:17:15.040Z,21.00
2019-02-21T10:18:15.026Z,20.00
2019-02-21T10:19:15.016Z,21.00
2019-02-21T10:20:14.992Z,20.50
2019-02-21T10:21:14.984Z,19.90
2019-02-21T10:22:14.998Z,20.00
2019-02-21T10:23:14.976Z,20.80
2019-02-21T10:24:14.985Z,22.70
2019-02-21T10:25:14.983Z,22.00
2019-02-21T10:26:14.998Z,23.80
2019-02-21T10:27:14.997Z,23.90
2019-02-21T10:28:14.961Z,26.10
2019-02-21T10:29:14.921Z,26.70
2019-02-21T10:30:14.942Z,25.60
2019-02-21T10:31:14.930Z,27.40
2019-02-21T10:32:14.926Z,30.50
2019-02-21T10:33:14.917Z,32.30
2019-02-21T10:34:14.914Z,33.60
2019-02-21T10:35:14.892Z,35.20
2019-02-21T10:36:14.922Z,39.70
2019-02-21T10:37:14.875Z,39.70
2019-02-21T10:38:14.879Z,41.30
2019-02-21T10:39:14.879Z,46.80
2019-02-21T10:40:14.859Z,48.20
2019-02-21T10:41:14.888Z,47.60
2019-02-21T10:42:14.849Z,45.80
2019-02-21T10:43:14.834Z,46.90
2019-02-21T10:44:14.836Z,47.90
2019-02-21T10:45:14.814Z,47.40
2019-02-21T10:46:14.807Z,48.40
2019-02-21T10:47:14.800Z,49.80
2019-02-21T10:48:14.856Z,49.30
2019-02-21T10:49:14.803Z,48.40
2019-02-21T10:50:14.782Z,49.00
2019-02-21T10:51:14.778Z,47.10
2019-02-21T10:52:14.884Z,44.60
2019-02-21T10:53:14.786Z,47.30
2019-02-21T10:54:14.769Z,43.80
2019-02-21T10:55:14.745Z,47.10
2019-02-21T10:56:14.786Z,49.70
2019-02-21T10:57:14.760Z,47.30
2019-02-21T10:58:14.730Z,48.20
2019-02-21T10:59:14.740Z,45.60
2019-02-21T11:00:14.738Z,45.50
2019-02-21T11:01:14.718Z,45.10
2019-02-21T11:02:14.718Z,42.20
2019-02-21T11:03:14.714Z,42.30
2019-02-21T11:04:14.707Z,38.00
2019-02-21T11:05:14.689Z,38.10
2019-02-21T11:06:14.695Z,37.60
2019-02-21T11:07:14.685Z,37.90
2019-02-21T11:08:14.684Z,39.60
2019-02-21T11:09:14.657Z,36.60
2019-02-21T11:10:14.664Z,33.70
2019-02-21T11:11:17.049Z,34.50
2019-02-21T11:12:14.687Z,34.00
2019-02-21T11:13:14.638Z,32.30
2019-02-21T11:14:14.654Z,28.30
2019-02-21T11:15:14.637Z,31.00
2019-02-21T11:16:14.633Z,31.40
2019-02-21T11:17:14.602Z,30.80
2019-02-21T11:18:14.599Z,29.80
2019-02-21T11:19:14.604Z,26.90
2019-02-21T11:20:14.593Z,30.50
2019-02-21T11:21:14.585Z,30.50
2019-02-21T11:22:14.581Z,28.00
2019-02-21T11:23:14.583Z,28.60
2019-02-21T11:24:14.561Z,28.60
2019-02-21T11:25:14.577Z,27.00
2019-02-21T11:26:15.089Z,29.20
2019-02-21T11:27:14.543Z,29.60
2019-02-21T11:28:14.547Z,30.00
2019-02-21T11:29:14.553Z,30.40
2019-02-21T11:30:14.541Z,31.80
2019-02-21T11:31:14.532Z,34.20
2019-02-21T11:32:14.523Z,33.50
2019-02-21T11:33:14.517Z,34.10
2019-02-21T11:34:14.518Z,35.20
2019-02-21T11:35:14.508Z,35.10
2019-02-21T11:36:14.545Z,31.20
2019-02-21T11:37:14.481Z,29.30
2019-02-21T11:38:14.475Z,29.10
2019-02-21T11:39:14.475Z,26.50
2019-02-21T11:40:14.463Z,23.30
2019-02-21T11:41:14.479Z,24.50
2019-02-21T11:42:14.456Z,23.80
2019-02-21T11:43:14.439Z,22.70
2019-02-21T11:44:14.492Z,23.60
2019-02-21T11:45:14.440Z,23.10
2019-02-21T11:46:14.442Z,22.00
2019-02-21T11:47:14.468Z,21.70
2019-02-21T11:48:14.425Z,21.40
2019-02-21T11:49:14.424Z,20.90
2019-02-21T11:50:14.416Z,19.70
2019-02-21T11:51:14.388Z,17.30
2019-02-21T11:52:14.391Z,14.90
2019-02-21T11:53:14.401Z,16.10
2019-02-21T11:54:19.253Z,16.20
2019-02-21T11:55:14.380Z,16.40
2019-02-21T11:56:15.729Z,16.30
2019-02-21T11:57:14.358Z,16.90
2019-02-21T11:58:14.347Z,15.90
2019-02-21T11:59:16.068Z,15.70
2019-02-21T12:00:14.327Z,14.50
2019-02-21T12:01:14.329Z,14.50
2019-02-21T12:02:14.341Z,13.90
2019-02-21T12:03:14.314Z,13.80
2019-02-21T12:04:14.322Z,14.00
2019-02-21T12:05:17.666Z,14.10
2019-02-21T12:06:14.296Z,12.90
2019-02-21T12:07:14.305Z,13.10
2019-02-21T12:08:14.287Z,12.90
2019-02-21T12:09:14.270Z,12.20
2019-02-21T12:10:14.273Z,12.20
2019-02-21T12:11:14.277Z,12.30
2019-02-21T12:12:14.271Z,11.90
2019-02-21T12:13:14.270Z,9.40
2019-02-21T12:14:14.260Z,9.60
2019-02-21T12:15:14.287Z,11.00
2019-02-21T12:16:14.252Z,10.80
2019-02-21T12:17:14.236Z,10.20
2019-02-21T12:18:14.219Z,10.40
2019-02-21T12:19:14.234Z,9.90
2019-02-21T12:20:14.213Z,8.80
2019-02-21T12:21:14.207Z,7.40
2019-02-21T12:22:14.497Z,7.40
2019-02-21T12:23:14.202Z,7.20
2019-02-21T12:24:14.190Z,7.80
2019-02-21T12:25:14.205Z,6.90
2019-02-21T12:26:14.163Z,6.70
2019-02-21T12:27:14.158Z,6.90
2019-02-21T12:28:15.916Z,6.30
2019-02-21T12:29:14.154Z,6.00
2019-02-21T12:30:14.155Z,5.10
2019-02-21T12:31:14.161Z,5.20
2019-02-21T12:32:14.145Z,5.70
2019-02-21T12:33:14.141Z,5.50
2019-02-21T12:34:14.142Z,5.70
2019-02-21T12:35:14.138Z,5.40
2019-02-21T12:36:14.191Z,5.10
2019-02-21T12:37:14.119Z,5.10
2019-02-21T12:38:14.115Z,5.10
2019-02-21T12:39:14.110Z,6.30
2019-02-21T12:40:14.106Z,5.20
2019-02-21T12:41:14.103Z,4.30
2019-02-21T12:42:14.078Z,4.40
2019-02-21T12:43:14.101Z,4.30
2019-02-21T12:44:14.085Z,4.10
2019-02-21T12:45:14.113Z,3.60
2019-02-21T12:46:14.105Z,3.90
2019-02-21T12:47:14.053Z,4.00
2019-02-21T12:48:14.063Z,3.50
2019-02-21T12:49:14.105Z,3.20
2019-02-21T12:50:14.054Z,3.30
2019-02-21T12:51:14.043Z,4.10
2019-02-21T12:52:14.041Z,3.70
2019-02-21T12:53:14.035Z,4.10
2019-02-21T12:54:14.044Z,3.20
2019-02-21T12:55:14.019Z,3.00
2019-02-21T12:56:14.023Z,3.30
2019-02-21T12:57:14.006Z,3.40
2019-02-21T12:58:14.025Z,3.60
2019-02-21T12:59:14.017Z,3.40
2019-02-21T13:00:14.023Z,3.60
2019-02-21T13:01:14.010Z,3.20
2019-02-21T13:02:14.009Z,4.00
2019-02-21T13:03:13.993Z,3.80
2019-02-21T13:04:13.999Z,3.40